Cornish, Minnesota
Current Conditions -  °F | °C
As of 11:25 PM on Sunday 19 Oct 2014 (Local Time) from KHZX Reporting Station
Clear Clear  
Wind Chill: 48°   Ceiling: Unl
Heat Index: 48°   Visibility: 10mi
Dew Point: 43°   Wind: 3mph
Humidity: 82%   Direction: 310°NW
Pressure: 29.86"   Gusts: NA
Location:  46.9333°N, 93.1876°W
Report Text: KHZX 200425Z AUTO 31003KT 10SM CLR 09/06 A2986 RMK AO2
Loading
Personal Weather Stations






























Interactive Weather Map
Tropical Storm Tracking
New forecast layout! Learn more

10-Day Weather Forecast

Advertisements
Track Severe Weather on mobile